createdAt,value
2019-05-29T00:00:10.196Z,98773.97
2019-05-29T00:02:37.132Z,98771.58
2019-05-29T00:05:05.932Z,98782.86
2019-05-29T00:07:32.987Z,98776.55
2019-05-29T00:09:59.690Z,98776.66
2019-05-29T00:12:26.401Z,98781.16
2019-05-29T00:14:53.397Z,98789.69
2019-05-29T00:17:20.112Z,98789.52
2019-05-29T00:19:46.804Z,98793.34
2019-05-29T00:22:14.510Z,98793.59
2019-05-29T00:24:41.423Z,98794.05
2019-05-29T00:27:08.171Z,98796.71
2019-05-29T00:29:36.870Z,98798.34
2019-05-29T00:32:03.595Z,98798.54
2019-05-29T00:34:30.283Z,98801.09
2019-05-29T00:36:57.031Z,98810.30
2019-05-29T00:39:23.741Z,98807.67
2019-05-29T00:41:50.484Z,98807.38
2019-05-29T00:44:18.644Z,98807.17
2019-05-29T00:47:05.693Z,98804.75
2019-05-29T00:49:32.402Z,98816.10
2019-05-29T00:51:59.213Z,98811.59
2019-05-29T00:54:25.925Z,98814.63
2019-05-29T00:56:52.631Z,98826.20
2019-05-29T00:59:19.341Z,98816.55
2019-05-29T01:01:46.324Z,98816.11
2019-05-29T01:04:13.608Z,98826.34
2019-05-29T01:06:40.657Z,98822.45
2019-05-29T01:09:07.406Z,98821.97
2019-05-29T01:11:34.113Z,98820.20
2019-05-29T01:14:00.871Z,98830.56
2019-05-29T01:16:27.599Z,98831.58
2019-05-29T01:18:56.431Z,98839.90
2019-05-29T01:21:23.165Z,98838.66
2019-05-29T01:23:50.505Z,98846.62
2019-05-29T01:26:17.311Z,98855.34
2019-05-29T01:28:44.239Z,98847.81
2019-05-29T01:31:10.981Z,98883.80
2019-05-29T01:33:37.713Z,98853.19
2019-05-29T01:36:04.754Z,98863.62
2019-05-29T01:38:31.486Z,98864.45
2019-05-29T01:40:58.204Z,98865.69
2019-05-29T01:43:25.279Z,98866.70
2019-05-29T01:45:52.003Z,98866.39
2019-05-29T01:48:19.579Z,98868.48
2019-05-29T01:50:46.390Z,98876.88
2019-05-29T01:53:13.469Z,98881.22
2019-05-29T01:55:40.200Z,98879.50
2019-05-29T01:58:07.659Z,98876.24
2019-05-29T02:00:34.380Z,98876.88
2019-05-29T02:03:01.143Z,98874.19
2019-05-29T02:05:28.273Z,98873.25
2019-05-29T02:07:55.343Z,98883.87
2019-05-29T02:10:22.240Z,98885.07
2019-05-29T02:12:49.182Z,98888.19
2019-05-29T02:15:29.536Z,98886.77
2019-05-29T02:17:44.556Z,98889.65
2019-05-29T02:20:11.399Z,98891.74
2019-05-29T02:22:38.412Z,98895.55
2019-05-29T02:25:05.283Z,98890.86
2019-05-29T02:27:32.022Z,98897.48
2019-05-29T02:29:58.803Z,98894.53
2019-05-29T02:32:25.868Z,98901.70
2019-05-29T02:34:52.711Z,98898.05
2019-05-29T02:37:20.152Z,98907.12
2019-05-29T02:39:46.939Z,98899.64
2019-05-29T02:42:13.642Z,98905.80
2019-05-29T02:44:40.342Z,98905.98
2019-05-29T02:47:07.335Z,98911.41
2019-05-29T02:49:34.042Z,98913.49
2019-05-29T02:52:00.768Z,98909.90
2019-05-29T02:54:29.429Z,98913.31
2019-05-29T02:56:56.226Z,98917.98
2019-05-29T02:59:23.630Z,98956.91
2019-05-29T03:01:51.582Z,98921.44
2019-05-29T03:04:18.285Z,98925.23
2019-05-29T03:06:44.988Z,98933.15
2019-05-29T03:09:11.705Z,98930.89
2019-05-29T03:11:38.415Z,98934.56
2019-05-29T03:14:05.137Z,98931.05
2019-05-29T03:16:32.828Z,98944.56
2019-05-29T03:19:01.694Z,98948.25
2019-05-29T03:21:28.902Z,98950.33
2019-05-29T03:23:57.028Z,98950.02
2019-05-29T03:26:26.444Z,98960.58
2019-05-29T03:28:52.352Z,98961.81
2019-05-29T03:31:19.082Z,98963.66
2019-05-29T03:33:49.762Z,98962.06
2019-05-29T03:36:14.461Z,98976.41
2019-05-29T03:38:41.147Z,98976.47
2019-05-29T03:41:07.859Z,98979.89
2019-05-29T03:43:36.094Z,98978.38
2019-05-29T03:46:03.308Z,98980.95
2019-05-29T03:48:30.559Z,98985.07
2019-05-29T03:50:58.594Z,98985.83
2019-05-29T03:53:26.885Z,99001.86
2019-05-29T03:55:53.919Z,98987.37
2019-05-29T03:58:20.626Z,99000.66
2019-05-29T04:00:48.857Z,98993.46
2019-05-29T04:03:16.249Z,99002.80
2019-05-29T04:05:43.007Z,99011.94
2019-05-29T04:08:10.063Z,99012.97
2019-05-29T04:10:37.921Z,99015.61
2019-05-29T04:13:07.554Z,99014.17
2019-05-29T04:15:36.641Z,99013.36
2019-05-29T04:18:04.127Z,99020.55
2019-05-29T04:20:33.595Z,99021.94
2019-05-29T04:23:00.310Z,99021.16
2019-05-29T04:25:31.305Z,99024.31
2019-05-29T04:27:55.665Z,99027.59
2019-05-29T04:30:22.402Z,99025.24
2019-05-29T04:32:49.118Z,99031.22
2019-05-29T04:35:15.852Z,99023.41
2019-05-29T04:37:42.562Z,99032.37
2019-05-29T04:40:09.290Z,99029.93
2019-05-29T04:42:37.644Z,99036.30
2019-05-29T04:45:04.843Z,99037.62
2019-05-29T04:47:33.140Z,99046.31
2019-05-29T04:50:00.096Z,99051.13
2019-05-29T04:52:26.821Z,99060.08
2019-05-29T04:54:53.527Z,99065.41
2019-05-29T04:57:20.249Z,99068.95
2019-05-29T04:59:50.263Z,99075.51
2019-05-29T05:02:16.959Z,99085.38
2019-05-29T05:04:43.685Z,99085.02
2019-05-29T05:07:10.385Z,99091.02
2019-05-29T05:09:37.572Z,99090.42
2019-05-29T05:12:04.580Z,99104.63
2019-05-29T05:14:31.574Z,99101.95
2019-05-29T05:16:58.503Z,99108.28
2019-05-29T05:19:25.222Z,99103.30
2019-05-29T05:21:51.927Z,99115.89
2019-05-29T05:24:18.650Z,99115.91
2019-05-29T05:26:45.383Z,99113.70
2019-05-29T05:29:12.249Z,99110.44
2019-05-29T05:31:40.657Z,99112.79
2019-05-29T05:34:08.122Z,99121.78
2019-05-29T05:36:38.885Z,99120.55
2019-05-29T05:39:06.216Z,99120.09
2019-05-29T05:41:33.069Z,99127.48
2019-05-29T05:44:00.149Z,99139.88
2019-05-29T05:46:26.883Z,99136.41
2019-05-29T05:48:53.708Z,99138.60
2019-05-29T05:51:20.426Z,99137.58
2019-05-29T05:53:47.270Z,99144.92
2019-05-29T05:56:14.107Z,99149.43
2019-05-29T05:58:42.282Z,99151.81
2019-05-29T06:01:09.371Z,99153.63
2019-05-29T06:03:36.190Z,99153.13
2019-05-29T06:06:02.968Z,99169.05
2019-05-29T06:08:29.655Z,99151.01
2019-05-29T06:10:56.503Z,99154.64
2019-05-29T06:13:23.215Z,99158.35
2019-05-29T06:15:49.961Z,99153.34
2019-05-29T06:18:21.589Z,99159.57
2019-05-29T06:20:45.696Z,99162.73
2019-05-29T06:23:12.408Z,99162.73
2019-05-29T06:25:40.707Z,99167.97
2019-05-29T06:28:08.188Z,99157.79
2019-05-29T06:30:36.621Z,99173.03
2019-05-29T06:33:03.672Z,99170.03
2019-05-29T06:35:30.412Z,99169.75
2019-05-29T06:37:57.162Z,99178.23
2019-05-29T06:40:30.978Z,99174.24
2019-05-29T06:42:57.771Z,99175.50
2019-05-29T06:45:29.995Z,99181.81
2019-05-29T06:47:56.750Z,99187.49
2019-05-29T06:50:23.471Z,99185.69
2019-05-29T06:52:50.305Z,99179.91
2019-05-29T06:55:17.027Z,99191.83
2019-05-29T06:57:44.531Z,99193.21
2019-05-29T07:00:11.228Z,99195.47
2019-05-29T07:02:38.596Z,99196.38
2019-05-29T07:05:05.962Z,99203.03
2019-05-29T07:07:32.653Z,99207.33
2019-05-29T07:09:59.381Z,99216.48
2019-05-29T07:12:26.231Z,99208.44
2019-05-29T07:14:52.934Z,99217.98
2019-05-29T07:17:22.064Z,99217.45
2019-05-29T07:20:00.726Z,99223.13
2019-05-29T07:22:17.428Z,99223.17
2019-05-29T07:24:45.029Z,99227.66
2019-05-29T07:27:13.629Z,99229.66
2019-05-29T07:29:41.166Z,99234.19
2019-05-29T07:32:08.158Z,99232.45
2019-05-29T07:34:49.648Z,99233.41
2019-05-29T07:37:03.820Z,99239.48
2019-05-29T07:39:30.624Z,99237.68
2019-05-29T07:41:57.395Z,99240.64
2019-05-29T07:44:24.103Z,99241.78
2019-05-29T07:46:50.817Z,99248.56
2019-05-29T07:49:17.566Z,99245.77
2019-05-29T07:51:45.047Z,99250.84
2019-05-29T07:54:12.825Z,99253.55
2019-05-29T07:56:40.371Z,99249.25
2019-05-29T07:59:07.471Z,99254.59
2019-05-29T08:01:34.186Z,99250.05
2019-05-29T08:04:00.915Z,99251.45
2019-05-29T08:06:27.640Z,99252.66
2019-05-29T08:08:54.368Z,99253.44
2019-05-29T08:11:21.304Z,99263.70
2019-05-29T08:13:48.143Z,99261.62
2019-05-29T08:16:14.981Z,99261.93
2019-05-29T08:18:46.132Z,99271.79
2019-05-29T08:21:10.573Z,99276.33
2019-05-29T08:23:38.277Z,99274.20
2019-05-29T08:26:05.396Z,99277.79
2019-05-29T08:28:32.251Z,99283.15
2019-05-29T08:30:58.963Z,99275.03
2019-05-29T08:33:25.809Z,99279.27
2019-05-29T08:35:59.965Z,99283.41
2019-05-29T08:38:21.619Z,99283.26
2019-05-29T08:40:49.498Z,99284.06
2019-05-29T08:43:16.762Z,99292.08
2019-05-29T08:45:43.547Z,99292.53
2019-05-29T08:48:10.288Z,99293.45
2019-05-29T08:50:37.048Z,99297.79
2019-05-29T08:53:03.812Z,99297.22
2019-05-29T08:55:30.532Z,99309.39
2019-05-29T08:57:57.298Z,99303.59
2019-05-29T09:00:24.378Z,99299.36
2019-05-29T09:02:51.284Z,99299.20
2019-05-29T09:05:18.206Z,99305.16
2019-05-29T09:07:46.423Z,99305.95
2019-05-29T09:10:14.043Z,99316.34
2019-05-29T09:12:40.818Z,99300.22
2019-05-29T09:15:09.603Z,99303.34
2019-05-29T09:17:36.732Z,99306.24
2019-05-29T09:20:06.860Z,99306.34
2019-05-29T09:22:33.581Z,99307.02
2019-05-29T09:25:00.302Z,99313.95
2019-05-29T09:27:27.051Z,99312.94
2019-05-29T09:29:53.736Z,99306.15
2019-05-29T09:32:40.756Z,99316.84
2019-05-29T09:34:50.039Z,99309.61
2019-05-29T09:37:17.426Z,99312.30
2019-05-29T09:39:45.404Z,99312.47
2019-05-29T09:42:12.424Z,99318.27
2019-05-29T09:44:40.213Z,99316.52
2019-05-29T09:47:07.118Z,99315.44
2019-05-29T09:49:33.815Z,99319.62
2019-05-29T09:52:01.016Z,99323.22
2019-05-29T09:54:28.928Z,99321.30
2019-05-29T09:56:56.846Z,99330.06
2019-05-29T09:59:25.968Z,99334.46
2019-05-29T10:01:54.092Z,99322.59
2019-05-29T10:04:21.291Z,99326.28
2019-05-29T10:06:48.006Z,99293.66
2019-05-29T10:09:14.729Z,99322.14
2019-05-29T10:11:41.475Z,99332.59
2019-05-29T10:14:08.274Z,99332.17
2019-05-29T10:16:35.867Z,99339.94
2019-05-29T10:19:05.820Z,99333.89
2019-05-29T10:21:40.264Z,99346.78
2019-05-29T10:24:02.292Z,99338.22
2019-05-29T10:26:29.999Z,99341.80
2019-05-29T10:29:07.975Z,99347.41
2019-05-29T10:31:25.565Z,99341.69
2019-05-29T10:33:52.456Z,99347.88
2019-05-29T10:36:19.121Z,99352.24
2019-05-29T10:38:46.492Z,99351.40
2019-05-29T10:41:13.648Z,99352.91
2019-05-29T10:43:40.621Z,99351.21
2019-05-29T10:46:07.364Z,99356.56
2019-05-29T10:48:34.246Z,99349.08
2019-05-29T10:51:04.818Z,99348.28
2019-05-29T10:53:31.614Z,99341.54
2019-05-29T10:55:58.356Z,99347.27
2019-05-29T10:58:25.119Z,99337.86
2019-05-29T11:00:53.229Z,99343.07
2019-05-29T11:03:20.330Z,99343.10
2019-05-29T11:05:47.552Z,99347.11
2019-05-29T11:08:14.875Z,99347.92
2019-05-29T11:10:41.718Z,99346.22
2019-05-29T11:13:08.484Z,99341.55
2019-05-29T11:15:35.851Z,99343.19
2019-05-29T11:18:02.683Z,99352.60
2019-05-29T11:20:29.396Z,99336.05
2019-05-29T11:22:56.282Z,99335.88
2019-05-29T11:25:27.912Z,99330.31
2019-05-29T11:27:54.939Z,99334.77
2019-05-29T11:30:21.632Z,99330.45
2019-05-29T11:32:50.919Z,99328.03
2019-05-29T11:35:17.956Z,99329.69
2019-05-29T11:37:45.148Z,99339.66
2019-05-29T11:40:12.916Z,99364.17
2019-05-29T11:42:40.163Z,99324.26
2019-05-29T11:45:37.906Z,99340.52
2019-05-29T11:48:05.435Z,99357.69
2019-05-29T11:50:32.318Z,99328.98
2019-05-29T11:52:59.059Z,99329.92
2019-05-29T11:55:26.297Z,99334.83
2019-05-29T11:57:53.792Z,99332.85
2019-05-29T12:00:23.695Z,99336.61
2019-05-29T12:02:55.805Z,99333.17
2019-05-29T12:05:22.872Z,99342.86
2019-05-29T12:07:49.589Z,99338.28
2019-05-29T12:10:16.463Z,99342.21
2019-05-29T12:12:43.321Z,99334.23
2019-05-29T12:15:14.836Z,99346.99
2019-05-29T12:17:39.072Z,99338.09
2019-05-29T12:20:26.421Z,99332.72
2019-05-29T12:22:35.147Z,99332.56
2019-05-29T12:25:03.002Z,99346.67
2019-05-29T12:27:30.040Z,99334.75
2019-05-29T12:29:56.857Z,99331.97
2019-05-29T12:32:23.844Z,99328.73
2019-05-29T12:34:53.479Z,99320.48
2019-05-29T12:37:19.327Z,99328.55
2019-05-29T12:39:46.060Z,99328.91
2019-05-29T12:42:12.799Z,99322.45
2019-05-29T12:44:39.885Z,99321.79
2019-05-29T12:47:06.693Z,99319.81
2019-05-29T12:49:33.617Z,99315.75
2019-05-29T12:52:01.902Z,99320.53
2019-05-29T12:54:28.970Z,99322.96
2019-05-29T12:56:55.835Z,99327.31
2019-05-29T12:59:22.590Z,99313.49
2019-05-29T13:01:49.315Z,99312.45
2019-05-29T13:04:16.081Z,99320.00
2019-05-29T13:06:42.798Z,99322.15
2019-05-29T13:09:09.619Z,99325.05
2019-05-29T13:11:36.327Z,99327.89
2019-05-29T13:14:03.077Z,99324.55
2019-05-29T13:16:29.807Z,99324.09
2019-05-29T13:18:57.018Z,99326.36
2019-05-29T13:21:24.266Z,99321.52
2019-05-29T13:23:51.072Z,99325.78
2019-05-29T13:26:17.836Z,99334.38
2019-05-29T13:28:45.062Z,99318.12
2019-05-29T13:31:11.774Z,99327.12
2019-05-29T13:33:38.731Z,99328.58
2019-05-29T13:36:06.717Z,99330.04
2019-05-29T13:38:34.086Z,99316.19
2019-05-29T13:41:02.312Z,99322.43
2019-05-29T13:43:29.413Z,99316.86
2019-05-29T13:45:56.333Z,99320.94
2019-05-29T13:48:23.584Z,99322.17
2019-05-29T13:50:51.066Z,99316.44
2019-05-29T13:53:17.868Z,99322.97
2019-05-29T13:55:44.540Z,99314.48
2019-05-29T13:58:11.265Z,99315.59
2019-05-29T14:00:38.023Z,99304.70
2019-05-29T14:03:05.037Z,99306.52
2019-05-29T14:05:33.967Z,99309.67
2019-05-29T14:08:01.128Z,99309.94
2019-05-29T14:10:28.268Z,99307.20
2019-05-29T14:12:55.050Z,99310.79
2019-05-29T14:15:21.768Z,99310.31
2019-05-29T14:17:48.550Z,99312.52
2019-05-29T14:20:15.913Z,99312.48
2019-05-29T14:22:42.638Z,99303.23
2019-05-29T14:25:14.298Z,99307.17
2019-05-29T14:27:41.667Z,99301.91
2019-05-29T14:30:10.303Z,99302.51
2019-05-29T14:32:37.296Z,99304.28
2019-05-29T14:35:05.602Z,99300.77
2019-05-29T14:37:32.779Z,99303.27
2019-05-29T14:39:59.566Z,99309.35
2019-05-29T14:42:26.304Z,99312.60
2019-05-29T14:44:53.041Z,99316.28
2019-05-29T14:47:19.748Z,99316.93
2019-05-29T14:49:46.482Z,99316.97
2019-05-29T14:52:13.445Z,99320.42
2019-05-29T14:54:42.132Z,99324.85
2019-05-29T14:57:21.600Z,99325.31
2019-05-29T14:59:37.926Z,99324.61
2019-05-29T15:02:07.544Z,99325.70
2019-05-29T15:04:33.361Z,99321.80
2019-05-29T15:07:00.415Z,99332.63
2019-05-29T15:09:27.141Z,99334.16
2019-05-29T15:11:53.845Z,99335.41
2019-05-29T15:14:20.560Z,99333.98
2019-05-29T15:16:47.282Z,99332.77
2019-05-29T15:19:15.244Z,99343.09
2019-05-29T15:21:42.481Z,99335.88
2019-05-29T15:24:09.519Z,99335.33
2019-05-29T15:26:36.441Z,99341.92
2019-05-29T15:29:03.615Z,99340.76
2019-05-29T15:31:30.364Z,99342.60
2019-05-29T15:33:57.104Z,99345.34
2019-05-29T15:36:23.966Z,99346.27
2019-05-29T15:38:50.701Z,99348.98
2019-05-29T15:41:17.419Z,99346.29
2019-05-29T15:43:44.187Z,99348.41
2019-05-29T15:46:12.137Z,99352.94
2019-05-29T15:48:41.085Z,99351.18
2019-05-29T15:51:08.810Z,99353.95
2019-05-29T15:53:36.081Z,99352.86
2019-05-29T15:56:16.985Z,99382.20
2019-05-29T15:58:31.661Z,99354.55
2019-05-29T16:00:58.838Z,99357.77
2019-05-29T16:03:25.545Z,99362.07
2019-05-29T16:05:52.355Z,99359.63
2019-05-29T16:08:19.363Z,99362.35
2019-05-29T16:10:46.139Z,99369.34
2019-05-29T16:13:15.045Z,99357.86
2019-05-29T16:15:42.459Z,99360.13
2019-05-29T16:18:19.849Z,99355.84
2019-05-29T16:20:39.809Z,99350.12
2019-05-29T16:23:06.510Z,99350.12
2019-05-29T16:25:40.232Z,99353.80
2019-05-29T16:28:01.874Z,99350.91
2019-05-29T16:30:29.421Z,99347.75
2019-05-29T16:32:56.239Z,99351.55
2019-05-29T16:35:24.112Z,99352.17
2019-05-29T16:37:51.411Z,99351.34
2019-05-29T16:40:18.354Z,99355.84
2019-05-29T16:42:45.054Z,99359.39
2019-05-29T16:45:12.225Z,99364.14
2019-05-29T16:47:39.442Z,99365.04
2019-05-29T16:50:07.750Z,99376.33
2019-05-29T16:52:34.602Z,99372.23
2019-05-29T16:55:01.451Z,99374.84
2019-05-29T16:57:28.939Z,99379.20
2019-05-29T16:59:57.373Z,99391.52
2019-05-29T17:02:24.118Z,99385.83
2019-05-29T17:04:51.296Z,99391.09
2019-05-29T17:07:20.144Z,99394.18
2019-05-29T17:09:46.849Z,99400.07
2019-05-29T17:12:14.664Z,99407.20
2019-05-29T17:14:41.489Z,99405.80
2019-05-29T17:17:08.373Z,99406.87
2019-05-29T17:19:35.142Z,99403.92
2019-05-29T17:22:03.168Z,99402.48
2019-05-29T17:24:29.877Z,99407.58
2019-05-29T17:26:56.933Z,99402.10
2019-05-29T17:29:24.950Z,99409.64
2019-05-29T17:31:52.375Z,99399.84
2019-05-29T17:34:19.099Z,99421.87
2019-05-29T17:36:45.814Z,99410.64
2019-05-29T17:39:12.743Z,99415.80
2019-05-29T17:41:41.109Z,99410.75
2019-05-29T17:44:07.882Z,99411.77
2019-05-29T17:46:34.593Z,99413.29
2019-05-29T17:49:01.304Z,99416.53
2019-05-29T17:51:28.157Z,99412.08
2019-05-29T17:53:54.920Z,99422.73
2019-05-29T17:56:32.275Z,99422.02
2019-05-29T17:58:50.277Z,99423.63
2019-05-29T18:01:18.201Z,99424.42
2019-05-29T18:03:45.141Z,99434.55
2019-05-29T18:06:11.839Z,99431.91
2019-05-29T18:08:38.574Z,99426.74
2019-05-29T18:11:05.277Z,99428.56
2019-05-29T18:13:32.034Z,99430.30
2019-05-29T18:15:58.794Z,99429.02
2019-05-29T18:18:25.802Z,99435.28
2019-05-29T18:20:52.745Z,99441.33
2019-05-29T18:23:19.964Z,99444.81
2019-05-29T18:25:47.226Z,99446.98
2019-05-29T18:28:14.340Z,99441.91
2019-05-29T18:30:41.080Z,99447.30
2019-05-29T18:33:07.841Z,99447.17
2019-05-29T18:35:34.582Z,99440.30
2019-05-29T18:38:01.361Z,99453.36
2019-05-29T18:40:28.432Z,99447.03
2019-05-29T18:42:55.348Z,99448.67
2019-05-29T18:45:24.312Z,99443.75
2019-05-29T18:47:50.863Z,99439.89
2019-05-29T18:50:17.610Z,99447.53
2019-05-29T18:52:44.649Z,99451.34
2019-05-29T18:55:11.481Z,99445.57
2019-05-29T18:57:38.343Z,99451.67
2019-05-29T19:00:05.201Z,99453.78
2019-05-29T19:02:31.950Z,99454.88
2019-05-29T19:04:58.783Z,99459.13
2019-05-29T19:07:25.801Z,99469.66
2019-05-29T19:09:55.015Z,99468.25
2019-05-29T19:12:21.813Z,99469.16
2019-05-29T19:14:48.462Z,99476.45
2019-05-29T19:17:15.558Z,99480.29
2019-05-29T19:19:42.220Z,99476.52
2019-05-29T19:22:10.081Z,99478.98
2019-05-29T19:24:36.859Z,99483.00
2019-05-29T19:27:03.807Z,99487.64
2019-05-29T19:29:31.171Z,99492.84
2019-05-29T19:31:58.512Z,99494.95
2019-05-29T19:34:25.327Z,99502.05
2019-05-29T19:36:52.053Z,99505.22
2019-05-29T19:39:18.895Z,99514.59
2019-05-29T19:41:45.721Z,99513.09
2019-05-29T19:44:12.838Z,99511.19
2019-05-29T19:46:53.092Z,99526.26
2019-05-29T19:49:08.297Z,99527.66
2019-05-29T19:51:35.510Z,99526.11
2019-05-29T19:54:02.405Z,99533.64
2019-05-29T19:56:29.696Z,99531.83
2019-05-29T19:58:56.374Z,99542.28
2019-05-29T20:01:31.695Z,99545.09
2019-05-29T20:03:51.748Z,99552.10
2019-05-29T20:06:18.833Z,99555.78
2019-05-29T20:08:45.549Z,99559.86
2019-05-29T20:11:12.615Z,99567.13
2019-05-29T20:13:39.315Z,99570.88
2019-05-29T20:16:06.067Z,99569.56
2019-05-29T20:18:34.072Z,99570.38
2019-05-29T20:21:00.998Z,99580.58
2019-05-29T20:23:28.601Z,99575.88
2019-05-29T20:25:55.428Z,99577.36
2019-05-29T20:28:22.167Z,99577.62
2019-05-29T20:30:48.913Z,99581.59
2019-05-29T20:33:15.648Z,99584.06
2019-05-29T20:35:43.173Z,99582.03
2019-05-29T20:38:10.084Z,99583.20
2019-05-29T20:40:37.347Z,99585.14
2019-05-29T20:43:04.275Z,99583.41
2019-05-29T20:45:33.678Z,99580.73
2019-05-29T20:48:00.928Z,99581.04
2019-05-29T20:50:27.687Z,99584.73
2019-05-29T20:52:56.002Z,99584.53
2019-05-29T20:55:22.712Z,99586.98
2019-05-29T20:57:50.806Z,99604.61
2019-05-29T21:00:18.721Z,99588.70
2019-05-29T21:02:45.438Z,99584.47
2019-05-29T21:05:12.193Z,99587.16
2019-05-29T21:07:38.950Z,99590.84
2019-05-29T21:10:06.380Z,99591.72
2019-05-29T21:12:37.507Z,99598.33
2019-05-29T21:15:05.596Z,99601.27
2019-05-29T21:17:33.602Z,99611.45
2019-05-29T21:20:00.472Z,99602.95
2019-05-29T21:22:27.224Z,99613.31
2019-05-29T21:25:02.654Z,99607.73
2019-05-29T21:27:23.352Z,99614.66
2019-05-29T21:29:50.104Z,99615.99
2019-05-29T21:32:17.165Z,99620.52
2019-05-29T21:34:44.035Z,99621.05
2019-05-29T21:37:10.705Z,99623.18
2019-05-29T21:39:38.335Z,99620.25
2019-05-29T21:42:05.450Z,99623.69
2019-05-29T21:44:32.305Z,99621.59
2019-05-29T21:47:00.071Z,99628.52
2019-05-29T21:49:26.896Z,99637.05
2019-05-29T21:51:53.745Z,99629.91
2019-05-29T21:54:20.473Z,99633.89
2019-05-29T21:56:47.905Z,99629.92
2019-05-29T21:59:14.854Z,99632.58
2019-05-29T22:01:42.081Z,99627.25
2019-05-29T22:04:09.178Z,99627.77
2019-05-29T22:06:35.934Z,99630.17
2019-05-29T22:09:04.316Z,99631.78
2019-05-29T22:11:31.012Z,99634.70
2019-05-29T22:13:58.535Z,99633.64
2019-05-29T22:16:25.342Z,99639.75
2019-05-29T22:18:52.790Z,99630.45
2019-05-29T22:21:20.224Z,99638.67
2019-05-29T22:23:46.932Z,99640.55
2019-05-29T22:26:13.750Z,99641.88
2019-05-29T22:28:40.550Z,99642.67
2019-05-29T22:31:07.261Z,99643.19
2019-05-29T22:33:34.248Z,99640.02
2019-05-29T22:36:01.698Z,99630.17
2019-05-29T22:38:31.826Z,99637.34
2019-05-29T22:40:59.689Z,99631.23
2019-05-29T22:43:26.403Z,99640.52
2019-05-29T22:45:53.607Z,99637.28
2019-05-29T22:48:20.452Z,99633.59
2019-05-29T22:50:47.190Z,99636.53
2019-05-29T22:53:14.215Z,99639.20
2019-05-29T22:55:40.940Z,99642.08
2019-05-29T22:58:07.630Z,99643.91
2019-05-29T23:00:34.445Z,99644.21
2019-05-29T23:03:02.420Z,99639.16
2019-05-29T23:05:29.196Z,99650.30
2019-05-29T23:07:56.130Z,99643.36
2019-05-29T23:10:22.937Z,99646.27
2019-05-29T23:12:49.782Z,99635.66
2019-05-29T23:15:16.842Z,99638.06
2019-05-29T23:17:43.584Z,99638.58
2019-05-29T23:20:10.300Z,99639.34
2019-05-29T23:22:37.003Z,99637.19
2019-05-29T23:25:03.829Z,99642.50
2019-05-29T23:27:33.722Z,99642.27
2019-05-29T23:30:01.079Z,99636.70
2019-05-29T23:32:28.107Z,99640.13
2019-05-29T23:34:55.095Z,99635.58
2019-05-29T23:37:21.930Z,99638.72
2019-05-29T23:39:48.958Z,99640.02
2019-05-29T23:42:15.653Z,99655.98
2019-05-29T23:44:42.347Z,99654.25
2019-05-29T23:47:09.374Z,99650.29
2019-05-29T23:49:36.101Z,99656.66
2019-05-29T23:52:04.523Z,99658.78
2019-05-29T23:54:31.425Z,99651.97
2019-05-29T23:56:58.152Z,99642.44
2019-05-29T23:59:24.997Z,99637.61
